createdAt,value
2018-05-05T00:00:31.053Z,104673.91
2018-05-05T00:02:58.587Z,104656.63
2018-05-05T00:05:26.114Z,104692.20
2018-05-05T00:07:53.778Z,104696.28
2018-05-05T00:10:21.358Z,104711.52
2018-05-05T00:12:51.591Z,104698.31
2018-05-05T00:15:19.153Z,104690.17
2018-05-05T00:17:47.067Z,104720.67
2018-05-05T00:20:14.588Z,104750.16
2018-05-05T00:22:42.110Z,104716.61
2018-05-05T00:25:09.675Z,104716.61
2018-05-05T00:27:37.201Z,104730.84
2018-05-05T00:30:04.931Z,104746.09
2018-05-05T00:32:32.464Z,104721.69
2018-05-05T00:34:59.982Z,104721.69
2018-05-05T00:37:27.566Z,104753.20
2018-05-05T00:39:55.119Z,104735.92
2018-05-05T00:42:22.675Z,104762.36
2018-05-05T00:44:50.195Z,104795.91
2018-05-05T00:47:17.757Z,104778.63
2018-05-05T00:49:45.341Z,104769.48
2018-05-05T00:52:12.898Z,104741.01
2018-05-05T00:54:49.131Z,104790.83
2018-05-05T00:57:16.880Z,104798.95
2018-05-05T00:59:44.400Z,104808.11
2018-05-05T01:02:11.918Z,104833.52
2018-05-05T01:04:39.476Z,104836.58
2018-05-05T01:07:06.999Z,104845.73
2018-05-05T01:09:34.509Z,104838.61
2018-05-05T01:12:02.118Z,104879.28
2018-05-05T01:14:29.646Z,104893.52
2018-05-05T01:16:57.193Z,104909.78
2018-05-05T01:19:24.760Z,104886.39
2018-05-05T01:21:52.290Z,104936.22
2018-05-05T01:24:19.862Z,104943.33
2018-05-05T01:26:47.383Z,104975.87
2018-05-05T01:29:14.911Z,104965.70
2018-05-05T01:31:42.475Z,104985.02
2018-05-05T01:34:10.002Z,104967.73
2018-05-05T01:36:37.575Z,105014.50
2018-05-05T01:39:05.144Z,105009.42
2018-05-05T01:41:32.666Z,105025.69
2018-05-05T01:44:00.622Z,105029.75
2018-05-05T01:46:28.143Z,105099.91
2018-05-05T01:48:55.671Z,105049.08
2018-05-05T01:51:23.496Z,105058.22
2018-05-05T01:53:51.077Z,105045.00
2018-05-05T01:56:18.612Z,105068.39
2018-05-05T01:58:46.140Z,105072.45
2018-05-05T02:01:13.689Z,105080.59
2018-05-05T02:03:41.237Z,105069.41
2018-05-05T02:06:08.927Z,105083.64
2018-05-05T02:08:36.462Z,105094.83
2018-05-05T02:11:03.983Z,105110.08
2018-05-05T02:13:31.556Z,105090.77
2018-05-05T02:15:59.091Z,105085.67
2018-05-05T02:18:26.615Z,105109.06
2018-05-05T02:20:54.167Z,105152.78
2018-05-05T02:23:21.691Z,105163.97
2018-05-05T02:25:49.675Z,105120.25
2018-05-05T02:28:17.195Z,105148.72
2018-05-05T02:30:44.722Z,105129.40
2018-05-05T02:33:12.272Z,105196.51
2018-05-05T02:35:39.805Z,105152.78
2018-05-05T02:38:07.360Z,105148.72
2018-05-05T02:40:35.324Z,105132.45
2018-05-05T02:43:02.847Z,105153.80
2018-05-05T02:45:30.395Z,105149.73
2018-05-05T02:47:57.943Z,105169.05
2018-05-05T02:50:25.720Z,105164.98
2018-05-05T02:52:53.239Z,105203.63
2018-05-05T02:55:20.767Z,105154.81
2018-05-05T02:57:48.323Z,105151.77
2018-05-05T03:00:15.994Z,105154.81
2018-05-05T03:02:43.545Z,105154.81
2018-05-05T03:05:11.080Z,105203.63
2018-05-05T03:07:38.689Z,105182.27
2018-05-05T03:10:06.226Z,105211.76
2018-05-05T03:12:33.763Z,105208.71
2018-05-05T03:15:01.360Z,105242.27
2018-05-05T03:17:29.123Z,105238.20
2018-05-05T03:19:56.650Z,105238.20
2018-05-05T03:22:24.183Z,105230.06
2018-05-05T03:24:51.735Z,105254.47
2018-05-05T03:27:19.286Z,105243.28
2018-05-05T03:29:46.811Z,105302.25
2018-05-05T03:32:14.383Z,105278.88
2018-05-05T03:34:41.907Z,105273.78
2018-05-05T03:37:09.437Z,105310.39
2018-05-05T03:39:36.993Z,105282.94
2018-05-05T03:42:04.610Z,105321.58
2018-05-05T03:44:32.135Z,105303.27
2018-05-05T03:46:59.668Z,105307.34
2018-05-05T03:49:27.691Z,105332.77
2018-05-05T03:51:55.216Z,105313.44
2018-05-05T03:54:22.764Z,105349.03
2018-05-05T03:56:50.315Z,105327.67
2018-05-05T03:59:29.651Z,105331.75
2018-05-05T04:02:09.239Z,105341.91
2018-05-05T04:07:32.199Z,105368.35
2018-05-05T04:09:59.740Z,105368.35
2018-05-05T04:12:27.280Z,105369.37
2018-05-05T04:14:54.836Z,105364.28
2018-05-05T04:17:22.362Z,105370.38
2018-05-05T04:19:49.941Z,105319.55
2018-05-05T04:22:17.467Z,105342.93
2018-05-05T04:24:45.007Z,105315.47
2018-05-05T04:27:12.568Z,105299.20
2018-05-05T04:29:40.105Z,105303.27
2018-05-05T04:32:07.662Z,105275.82
2018-05-05T04:34:35.187Z,105278.88
2018-05-05T04:37:02.870Z,105330.73
2018-05-05T04:39:30.399Z,105282.94
2018-05-05T04:41:57.933Z,105243.28
2018-05-05T04:44:25.590Z,105238.20
2018-05-05T04:46:53.082Z,105210.74
2018-05-05T04:49:20.625Z,105193.45
2018-05-05T04:51:48.624Z,105160.92
2018-05-05T04:54:16.149Z,105176.17
2018-05-05T04:56:43.684Z,105137.53
2018-05-05T04:59:11.442Z,105071.44
2018-05-05T05:01:38.971Z,105100.92
2018-05-05T05:04:06.494Z,105049.08
2018-05-05T05:06:34.046Z,105022.64
2018-05-05T05:09:01.594Z,104989.08
2018-05-05T05:11:29.120Z,104946.38
2018-05-05T05:13:56.676Z,104942.31
2018-05-05T05:16:24.238Z,104892.49
2018-05-05T05:18:51.786Z,104828.44
2018-05-05T05:21:19.319Z,104820.31
2018-05-05T05:23:47.074Z,104739.99
2018-05-05T05:26:14.606Z,104782.69
2018-05-05T05:28:42.221Z,104573.27
2018-05-05T05:31:09.732Z,104310.98
2018-05-05T05:33:37.298Z,104096.50
2018-05-05T05:36:04.872Z,103813.92
2018-05-05T05:38:32.638Z,103769.20
2018-05-05T05:41:00.179Z,103512.06
2018-05-05T05:43:27.728Z,103580.16
2018-05-05T05:45:55.285Z,103918.61
2018-05-05T05:48:22.814Z,103719.40
2018-05-05T05:50:50.376Z,103628.95
2018-05-05T05:53:17.902Z,103593.38
2018-05-05T05:55:45.526Z,103928.78
2018-05-05T05:58:13.049Z,103484.63
2018-05-05T06:00:40.982Z,103646.22
2018-05-05T06:03:08.515Z,103490.72
2018-05-05T06:05:36.057Z,103189.91
2018-05-05T06:08:03.614Z,102986.67
2018-05-05T06:10:31.144Z,103490.72
2018-05-05T06:12:58.694Z,103009.02
2018-05-05T06:15:26.229Z,103050.69
2018-05-05T06:17:53.987Z,102637.13
2018-05-05T06:20:21.508Z,102675.73
2018-05-05T06:22:49.048Z,103081.17
2018-05-05T06:25:16.625Z,102391.25
2018-05-05T06:27:44.148Z,103014.11
2018-05-05T06:30:11.855Z,102257.14
2018-05-05T06:32:39.387Z,102591.41
2018-05-05T06:35:06.925Z,102669.64
2018-05-05T06:37:34.475Z,102412.59
2018-05-05T06:40:02.096Z,102654.41
2018-05-05T06:42:29.632Z,102717.39
2018-05-05T06:44:57.194Z,102824.09
2018-05-05T06:47:24.748Z,102839.33
2018-05-05T06:49:52.334Z,102742.80
2018-05-05T06:52:19.887Z,102936.88
2018-05-05T06:54:47.420Z,103167.55
2018-05-05T06:57:15.164Z,103070.00
2018-05-05T06:59:42.693Z,103343.36
2018-05-05T07:02:10.224Z,103389.09
2018-05-05T07:04:37.842Z,103393.16
2018-05-05T07:07:05.407Z,103421.61
2018-05-05T07:09:32.966Z,103264.09
2018-05-05T07:12:00.515Z,103271.20
2018-05-05T07:14:28.074Z,103172.63
2018-05-05T07:16:55.627Z,103212.27
2018-05-05T07:19:23.179Z,103249.87
2018-05-05T07:21:50.760Z,103120.80
2018-05-05T07:24:18.293Z,103082.19
2018-05-05T07:26:45.822Z,103083.20
2018-05-05T07:29:13.396Z,103173.65
2018-05-05T07:31:40.934Z,103017.16
2018-05-05T07:34:08.458Z,103021.22
2018-05-05T07:36:36.011Z,103015.12
2018-05-05T07:39:03.611Z,102998.86
2018-05-05T07:41:31.186Z,102906.39
2018-05-05T07:43:58.705Z,102746.86
2018-05-05T07:46:26.626Z,102680.82
2018-05-05T07:48:54.176Z,102721.46
2018-05-05T07:51:21.698Z,102796.66
2018-05-05T07:53:49.267Z,102785.47
2018-05-05T07:56:16.806Z,102667.61
2018-05-05T07:58:44.336Z,102605.63
2018-05-05T08:01:11.887Z,102695.05
2018-05-05T08:03:39.945Z,102621.89
2018-05-05T08:06:07.471Z,102681.84
2018-05-05T08:08:35.012Z,102786.49
2018-05-05T08:11:02.570Z,102757.02
2018-05-05T08:13:30.096Z,102856.60
2018-05-05T08:15:58.128Z,102741.78
2018-05-05T08:18:25.676Z,102655.42
2018-05-05T08:20:53.221Z,102622.91
2018-05-05T08:23:20.765Z,102511.14
2018-05-05T08:25:48.290Z,102532.47
2018-05-05T08:28:15.991Z,102572.10
2018-05-05T08:30:43.516Z,102627.98
2018-05-05T08:33:11.039Z,102521.30
2018-05-05T08:35:38.596Z,102463.38
2018-05-05T08:38:06.160Z,102470.50
2018-05-05T08:40:33.715Z,102498.95
2018-05-05T08:43:01.255Z,102449.16
2018-05-05T08:45:28.833Z,102385.16
2018-05-05T08:47:56.364Z,102432.91
2018-05-05T08:50:24.035Z,102338.42
2018-05-05T08:52:51.555Z,102196.19
2018-05-05T08:55:19.154Z,102177.90
2018-05-05T08:57:46.657Z,102166.72
2018-05-05T09:00:14.236Z,102256.13
2018-05-05T09:02:41.764Z,102121.01
2018-05-05T09:05:09.316Z,102051.92
2018-05-05T09:07:36.875Z,101956.44
2018-05-05T09:10:04.428Z,101765.45
2018-05-05T09:12:31.985Z,101768.50
2018-05-05T09:14:59.678Z,101906.66
2018-05-05T09:17:27.203Z,101832.50
2018-05-05T09:19:54.727Z,101894.47
2018-05-05T09:22:22.806Z,101865.01
2018-05-05T09:24:50.340Z,101690.29
2018-05-05T09:27:17.867Z,101715.68
2018-05-05T09:29:45.424Z,101667.94
2018-05-05T09:32:12.963Z,101795.93
2018-05-05T09:34:40.527Z,101749.20
2018-05-05T09:37:08.107Z,101684.19
2018-05-05T09:39:35.645Z,101554.17
2018-05-05T09:42:03.172Z,101615.12
2018-05-05T09:44:30.717Z,101489.17
2018-05-05T09:46:58.243Z,101377.44
2018-05-05T09:49:25.797Z,101306.34
2018-05-05T09:51:53.320Z,101329.70
2018-05-05T09:54:20.884Z,101419.08
2018-05-05T09:56:48.423Z,101390.64
2018-05-05T09:59:15.995Z,101475.96
2018-05-05T10:01:43.526Z,101469.88
2018-05-05T10:04:11.056Z,101513.55
2018-05-05T10:06:38.618Z,101467.84
2018-05-05T10:09:06.158Z,101401.81
2018-05-05T10:11:33.713Z,101262.67
2018-05-05T10:14:01.248Z,101342.91
2018-05-05T10:16:28.835Z,101367.28
2018-05-05T10:18:56.404Z,101408.93
2018-05-05T10:21:23.934Z,101417.05
2018-05-05T10:23:51.990Z,101365.25
2018-05-05T10:26:20.408Z,101286.03
2018-05-05T10:28:47.935Z,101304.31
2018-05-05T10:31:15.571Z,101247.44
2018-05-05T10:33:43.104Z,101216.97
2018-05-05T10:36:11.023Z,101144.86
2018-05-05T10:38:38.573Z,101100.17
2018-05-05T10:41:06.104Z,101092.05
2018-05-05T10:43:33.844Z,100935.64
2018-05-05T10:46:01.404Z,101101.19
2018-05-05T10:48:28.932Z,101116.42
2018-05-05T10:50:56.486Z,101129.63
2018-05-05T10:53:24.042Z,101113.38
2018-05-05T10:55:51.578Z,101057.52
2018-05-05T10:58:19.188Z,100969.16
2018-05-05T11:00:46.690Z,100914.31
2018-05-05T11:03:14.422Z,100841.20
2018-05-05T11:05:41.945Z,100961.03
2018-05-05T11:08:09.471Z,101056.50
2018-05-05T11:10:37.022Z,100904.16
2018-05-05T11:13:04.584Z,100978.30
2018-05-05T11:15:32.142Z,101109.30
2018-05-05T11:17:59.734Z,100954.94
2018-05-05T11:20:27.264Z,100881.81
2018-05-05T11:22:54.823Z,100921.42
2018-05-05T11:25:22.395Z,100862.52
2018-05-05T11:27:49.965Z,100726.44
2018-05-05T11:30:17.506Z,100701.05
2018-05-05T11:32:45.062Z,100816.83
2018-05-05T11:35:12.597Z,100640.13
2018-05-05T11:37:40.202Z,100757.92
2018-05-05T11:40:07.726Z,100734.56
2018-05-05T11:42:35.285Z,100612.70
2018-05-05T11:45:02.985Z,100600.52
2018-05-05T11:47:30.525Z,100776.20
2018-05-05T11:49:58.052Z,100645.20
2018-05-05T11:52:25.645Z,100778.23
2018-05-05T11:54:53.199Z,100648.25
2018-05-05T11:57:20.791Z,100682.77
2018-05-05T11:59:48.328Z,100598.48
2018-05-05T12:02:15.934Z,100579.20
2018-05-05T12:04:43.656Z,100448.20
2018-05-05T12:07:11.179Z,100584.27
2018-05-05T12:09:38.706Z,100513.19
2018-05-05T12:12:06.375Z,100462.42
2018-05-05T12:14:33.939Z,100478.67
2018-05-05T12:17:01.525Z,100457.34
2018-05-05T12:19:29.096Z,100497.96
2018-05-05T12:21:56.670Z,100445.16
2018-05-05T12:24:24.342Z,100388.30
2018-05-05T12:26:51.874Z,100284.73
2018-05-05T12:29:19.403Z,100372.05
2018-05-05T12:31:46.999Z,100305.03
2018-05-05T12:34:14.532Z,100293.87
2018-05-05T12:36:42.058Z,100280.66
2018-05-05T12:39:09.616Z,100220.76
2018-05-05T12:41:37.193Z,100115.16
2018-05-05T12:44:04.766Z,100132.42
2018-05-05T12:46:32.296Z,100259.34
2018-05-05T12:48:59.827Z,100157.81
2018-05-05T12:51:27.765Z,100149.69
2018-05-05T12:53:55.287Z,100028.86
2018-05-05T12:56:22.806Z,99995.36
2018-05-05T12:58:50.363Z,99968.96
2018-05-05T13:01:18.247Z,100139.53
2018-05-05T13:03:45.767Z,100100.95
2018-05-05T13:06:13.287Z,99995.36
2018-05-05T13:08:40.841Z,100019.72
2018-05-05T13:11:08.372Z,100096.89
2018-05-05T13:13:35.925Z,99999.42
2018-05-05T13:16:03.452Z,99958.81
2018-05-05T13:18:31.417Z,100036.98
2018-05-05T13:20:58.943Z,100004.49
2018-05-05T13:23:26.468Z,99930.38
2018-05-05T13:25:54.597Z,99990.28
2018-05-05T13:28:22.119Z,99942.56
2018-05-05T13:30:49.655Z,99941.55
2018-05-05T13:33:17.217Z,99874.54
2018-05-05T13:35:44.744Z,99931.39
2018-05-05T13:38:12.320Z,99825.80
2018-05-05T13:40:39.843Z,99834.95
2018-05-05T13:43:07.377Z,99825.80
2018-05-05T13:45:34.940Z,99848.14
2018-05-05T13:48:02.477Z,99892.81
2018-05-05T13:50:30.073Z,99823.78
2018-05-05T13:52:57.602Z,99695.86
2018-05-05T13:55:25.126Z,99779.11
2018-05-05T13:57:52.703Z,99744.59
2018-05-05T14:00:20.248Z,99657.28
2018-05-05T14:02:47.767Z,99642.05
2018-05-05T14:05:15.320Z,99795.34
2018-05-05T14:07:42.847Z,99735.45
2018-05-05T14:10:10.428Z,99590.28
2018-05-05T14:12:37.947Z,99732.41
2018-05-05T14:15:05.497Z,99646.12
2018-05-05T14:17:33.535Z,99647.12
2018-05-05T14:20:01.063Z,99674.54
2018-05-05T14:22:28.596Z,99674.54
2018-05-05T14:24:56.150Z,99651.19
2018-05-05T14:27:23.717Z,99612.61
2018-05-05T14:29:51.272Z,99555.77
2018-05-05T14:32:18.795Z,99575.05
2018-05-05T14:34:46.548Z,99645.10
2018-05-05T14:37:14.062Z,99660.33
2018-05-05T14:39:41.596Z,99752.71
2018-05-05T14:42:09.142Z,99697.89
2018-05-05T14:44:36.693Z,99701.95
2018-05-05T14:47:04.227Z,99548.66
2018-05-05T14:49:32.197Z,99536.48
2018-05-05T14:51:59.720Z,99557.80
2018-05-05T14:54:27.238Z,99497.90
2018-05-05T14:56:54.826Z,99545.61
2018-05-05T14:59:22.346Z,99723.27
2018-05-05T15:01:49.899Z,99641.04
2018-05-05T15:04:17.420Z,99473.53
2018-05-05T15:06:44.980Z,99452.22
2018-05-05T15:09:12.533Z,99579.11
2018-05-05T15:11:40.247Z,99544.59
2018-05-05T15:14:07.785Z,99663.38
2018-05-05T15:16:35.307Z,99549.67
2018-05-05T15:19:03.072Z,99620.73
2018-05-05T15:21:30.589Z,99580.13
2018-05-05T15:23:58.184Z,99671.49
2018-05-05T15:26:25.897Z,99576.06
2018-05-05T15:28:53.416Z,99636.98
2018-05-05T15:31:20.943Z,99587.23
2018-05-05T15:33:48.485Z,99440.04
2018-05-05T15:36:16.166Z,99521.25
2018-05-05T15:38:43.861Z,99457.30
2018-05-05T15:41:11.393Z,99584.19
2018-05-05T15:43:38.930Z,99520.23
2018-05-05T15:46:06.493Z,99583.17
2018-05-05T15:48:34.051Z,99602.47
2018-05-05T15:51:01.632Z,99538.51
2018-05-05T15:53:29.150Z,99548.66
2018-05-05T15:55:56.803Z,99586.22
2018-05-05T15:58:24.328Z,99618.70
2018-05-05T16:00:51.857Z,99626.83
2018-05-05T16:03:19.508Z,99561.86
2018-05-05T16:05:47.063Z,99524.30
2018-05-05T16:08:14.739Z,99536.48
2018-05-05T16:10:42.288Z,99631.91
2018-05-05T16:13:09.810Z,99584.19
2018-05-05T16:15:37.563Z,99611.59
2018-05-05T16:18:05.109Z,99715.15
2018-05-05T16:20:32.631Z,99693.83
2018-05-05T16:23:00.194Z,99645.10
2018-05-05T16:25:27.765Z,99563.89
2018-05-05T16:27:55.313Z,99588.25
2018-05-05T16:30:22.843Z,99607.54
2018-05-05T16:32:50.431Z,99574.04
2018-05-05T16:35:17.960Z,99560.84
2018-05-05T16:37:45.494Z,99574.04
2018-05-05T16:40:13.048Z,99591.30
2018-05-05T16:42:40.597Z,99601.45
2018-05-05T16:45:08.125Z,99630.89
2018-05-05T16:47:36.195Z,99676.57
2018-05-05T16:50:03.707Z,99613.63
2018-05-05T16:52:31.254Z,99643.06
2018-05-05T16:54:58.946Z,99661.34
2018-05-05T16:57:26.465Z,99671.49
2018-05-05T16:59:53.999Z,99619.72
2018-05-05T17:02:21.539Z,99774.03
2018-05-05T17:04:49.839Z,99788.25
2018-05-05T17:07:17.366Z,99842.05
2018-05-05T17:09:44.891Z,99794.34
2018-05-05T17:12:12.432Z,99821.75
2018-05-05T17:14:39.999Z,99854.23
2018-05-05T17:17:07.528Z,99885.70
2018-05-05T17:19:35.047Z,99796.36
2018-05-05T17:22:02.961Z,99887.73
2018-05-05T17:24:32.488Z,99872.51
2018-05-05T17:27:00.140Z,99910.07
2018-05-05T17:29:27.681Z,99890.78
2018-05-05T17:31:55.224Z,99915.16
2018-05-05T17:34:22.761Z,99961.85
2018-05-05T17:36:50.300Z,99944.59
2018-05-05T17:39:17.823Z,99953.73
2018-05-05T17:41:45.421Z,99990.28
2018-05-05T17:44:12.974Z,100027.84
2018-05-05T17:46:40.499Z,100075.56
2018-05-05T17:49:08.051Z,100070.48
2018-05-05T17:51:35.596Z,100128.36
2018-05-05T17:54:03.178Z,100137.50
2018-05-05T17:56:30.698Z,100172.02
2018-05-05T17:58:58.259Z,100191.31
2018-05-05T18:01:25.782Z,100220.76
2018-05-05T18:03:53.335Z,100157.81
2018-05-05T18:06:20.868Z,99932.41
2018-05-05T18:08:48.595Z,99599.41
2018-05-05T18:11:16.185Z,99004.58
2018-05-05T18:13:43.679Z,99340.55
2018-05-05T18:16:11.910Z,99701.95
2018-05-05T18:18:39.451Z,99598.40
2018-05-05T18:21:07.067Z,99833.93
2018-05-05T18:23:34.737Z,100248.17
2018-05-05T18:26:02.372Z,100081.66
2018-05-05T18:28:29.927Z,100455.31
2018-05-05T18:30:57.473Z,100450.23
2018-05-05T18:33:25.005Z,100465.47
2018-05-05T18:35:52.675Z,100609.66
2018-05-05T18:38:20.216Z,100660.44
2018-05-05T18:40:47.968Z,100791.44
2018-05-05T18:43:15.566Z,100862.52
2018-05-05T18:45:43.071Z,100939.70
2018-05-05T18:48:10.735Z,101069.70
2018-05-05T18:50:38.495Z,101056.50
2018-05-05T18:53:06.048Z,101099.16
2018-05-05T18:55:33.625Z,101086.97
2018-05-05T18:58:01.160Z,101202.75
2018-05-05T19:00:28.709Z,101304.31
2018-05-05T19:02:56.398Z,101311.42
2018-05-05T19:05:23.953Z,101340.88
2018-05-05T19:07:51.477Z,101498.31
2018-05-05T19:10:19.040Z,101382.52
2018-05-05T19:12:46.610Z,101353.06
2018-05-05T19:15:14.195Z,101446.51
2018-05-05T19:17:41.720Z,101531.83
2018-05-05T19:20:09.676Z,101562.30
2018-05-05T19:22:37.200Z,101661.84
2018-05-05T19:25:04.723Z,101668.95
2018-05-05T19:27:32.495Z,101592.77
2018-05-05T19:30:00.026Z,101621.22
2018-05-05T19:32:27.575Z,101653.72
2018-05-05T19:34:55.142Z,101760.38
2018-05-05T19:37:22.889Z,101759.36
2018-05-05T19:39:50.417Z,101781.71
2018-05-05T19:42:17.959Z,101804.06
2018-05-05T19:44:45.524Z,101885.32
2018-05-05T19:47:13.066Z,101881.27
2018-05-05T19:49:40.739Z,101874.16
2018-05-05T19:52:08.270Z,101885.32
2018-05-05T19:54:35.803Z,102000.12
2018-05-05T19:57:03.355Z,102041.77
2018-05-05T19:59:31.242Z,102113.90
2018-05-05T20:01:58.780Z,102228.70
2018-05-05T20:04:26.344Z,102262.22
2018-05-05T20:06:54.376Z,102260.19
2018-05-05T20:09:21.904Z,102159.61
2018-05-05T20:11:49.465Z,102142.34
2018-05-05T20:14:17.057Z,102203.30
2018-05-05T20:16:44.582Z,102243.94
2018-05-05T20:19:12.125Z,102307.94
2018-05-05T20:21:39.671Z,102298.80
2018-05-05T20:24:07.271Z,102450.17
2018-05-05T20:26:34.828Z,102521.30
2018-05-05T20:29:02.634Z,102415.63
2018-05-05T20:31:30.169Z,102341.47
2018-05-05T20:33:57.697Z,102384.14
2018-05-05T20:36:25.251Z,102444.08
2018-05-05T20:38:52.775Z,102429.86
2018-05-05T20:41:20.328Z,102384.14
2018-05-05T20:43:47.854Z,102418.68
2018-05-05T20:46:15.377Z,102399.37
2018-05-05T20:48:42.936Z,102399.37
2018-05-05T20:51:10.473Z,102471.52
2018-05-05T20:53:38.162Z,102545.69
2018-05-05T20:56:05.683Z,102497.93
2018-05-05T20:58:33.207Z,102571.09
2018-05-05T21:01:00.761Z,102599.53
2018-05-05T21:03:28.295Z,102537.55
2018-05-05T21:05:56.230Z,102586.33
2018-05-05T21:08:23.766Z,102752.96
2018-05-05T21:10:51.291Z,102748.90
2018-05-05T21:13:19.244Z,102835.27
2018-05-05T21:15:46.777Z,102854.57
2018-05-05T21:18:14.301Z,102939.92
2018-05-05T21:20:41.865Z,102844.41
2018-05-05T21:23:09.560Z,102745.84
2018-05-05T21:25:37.088Z,102789.55
2018-05-05T21:28:04.644Z,102807.83
2018-05-05T21:30:32.595Z,102837.30
2018-05-05T21:33:00.136Z,102841.36
2018-05-05T21:35:27.663Z,102766.17
2018-05-05T21:37:55.255Z,102735.69
2018-05-05T21:40:22.816Z,102790.56
2018-05-05T21:42:50.336Z,102869.81
2018-05-05T21:45:18.324Z,102946.02
2018-05-05T21:47:45.850Z,103021.22
2018-05-05T21:50:13.378Z,102924.69
2018-05-05T21:52:40.968Z,102928.75
2018-05-05T21:55:08.563Z,102901.31
2018-05-05T21:57:36.087Z,102917.58
2018-05-05T22:00:03.649Z,102884.04
2018-05-05T22:02:31.199Z,102965.33
2018-05-05T22:04:58.723Z,103000.89
2018-05-05T22:07:26.315Z,102992.77
2018-05-05T22:09:53.838Z,102969.39
2018-05-05T22:12:21.354Z,102985.66
2018-05-05T22:14:48.906Z,103006.99
2018-05-05T22:17:16.436Z,102980.58
2018-05-05T22:19:44.036Z,103012.08
2018-05-05T22:22:11.564Z,103034.43
2018-05-05T22:24:39.095Z,103037.48
2018-05-05T22:27:06.664Z,103034.43
2018-05-05T22:29:34.184Z,103063.90
2018-05-05T22:32:01.774Z,103048.66
2018-05-05T22:34:29.371Z,103056.78
2018-05-05T22:36:56.891Z,103106.58
2018-05-05T22:39:24.418Z,103122.84
2018-05-05T22:41:51.970Z,103143.16
2018-05-05T22:44:19.504Z,103121.82
2018-05-05T22:46:47.051Z,103115.73
2018-05-05T22:49:14.967Z,103135.03
2018-05-05T22:51:42.525Z,103116.74
2018-05-05T22:54:10.054Z,103139.09
2018-05-05T22:56:37.611Z,103163.48
2018-05-05T22:59:05.155Z,103201.09
2018-05-05T23:01:32.692Z,103231.58
2018-05-05T23:04:00.239Z,103223.44
2018-05-05T23:06:27.768Z,103273.23
2018-05-05T23:08:55.334Z,103314.91
2018-05-05T23:11:22.864Z,103291.53
2018-05-05T23:13:50.387Z,103334.22
2018-05-05T23:16:17.944Z,103359.63
2018-05-05T23:18:45.491Z,103350.47
2018-05-05T23:21:13.015Z,103383.00
2018-05-05T23:23:40.598Z,103369.78
2018-05-05T23:26:08.615Z,103364.70
2018-05-05T23:28:36.129Z,103370.80
2018-05-05T23:31:03.685Z,103422.63
2018-05-05T23:33:31.237Z,103403.32
2018-05-05T23:35:58.763Z,103464.30
2018-05-05T23:38:26.315Z,103403.32
2018-05-05T23:40:54.315Z,103400.27
2018-05-05T23:43:21.848Z,103389.09
2018-05-05T23:45:49.370Z,103365.72
2018-05-05T23:48:17.291Z,103398.24
2018-05-05T23:50:44.810Z,103404.34
2018-05-05T23:53:12.348Z,103439.91
2018-05-05T23:55:39.901Z,103406.37
2018-05-05T23:58:07.419Z,103408.41
